createdAt,value
2022-10-26T00:00:49.860Z,1013.70
2022-10-26T00:01:50.279Z,1013.70
2022-10-26T00:02:50.969Z,1013.71
2022-10-26T00:03:50.676Z,1013.73
2022-10-26T00:04:50.968Z,1013.69
2022-10-26T00:05:51.347Z,1013.64
2022-10-26T00:06:51.546Z,1013.68
2022-10-26T00:07:51.785Z,1013.65
2022-10-26T00:08:52.059Z,1013.69
2022-10-26T00:09:52.352Z,1013.76
2022-10-26T00:10:52.589Z,1013.68
2022-10-26T00:11:52.881Z,1013.67
2022-10-26T00:12:53.154Z,1013.68
2022-10-26T00:13:53.376Z,1013.69
2022-10-26T00:14:53.595Z,1013.73
2022-10-26T00:15:54.052Z,1013.66
2022-10-26T00:16:54.301Z,1013.71
2022-10-26T00:17:54.568Z,1013.68
2022-10-26T00:18:54.810Z,1013.71
2022-10-26T00:19:55.041Z,1013.77
2022-10-26T00:20:55.268Z,1013.73
2022-10-26T00:21:55.507Z,1013.78
2022-10-26T00:22:55.718Z,1013.73
2022-10-26T00:23:56.102Z,1013.73
2022-10-26T00:24:56.430Z,1013.73
2022-10-26T00:25:56.783Z,1013.80
2022-10-26T00:26:56.971Z,1013.77
2022-10-26T00:27:57.383Z,1013.81
2022-10-26T00:28:57.623Z,1013.78
2022-10-26T00:29:57.883Z,1013.76
2022-10-26T00:30:58.173Z,1013.82
2022-10-26T00:31:58.470Z,1013.82
2022-10-26T00:32:58.712Z,1013.83
2022-10-26T00:33:58.969Z,1013.77
2022-10-26T00:35:07.094Z,1013.80
2022-10-26T00:36:00.515Z,1013.81
2022-10-26T00:36:59.787Z,1013.79
2022-10-26T00:38:00.126Z,1013.83
2022-10-26T00:39:00.484Z,1013.83
2022-10-26T00:40:00.727Z,1013.79
2022-10-26T00:41:00.959Z,1013.83
2022-10-26T00:42:01.164Z,1013.79
2022-10-26T00:43:01.504Z,1013.81
2022-10-26T00:44:01.893Z,1013.78
2022-10-26T00:45:02.183Z,1013.76
2022-10-26T00:46:02.379Z,1013.78
2022-10-26T00:47:02.796Z,1013.83
2022-10-26T00:48:03.071Z,1013.78
2022-10-26T00:49:03.320Z,1013.82
2022-10-26T00:50:03.640Z,1013.82
2022-10-26T00:51:03.958Z,1013.83
2022-10-26T00:52:04.208Z,1013.78
2022-10-26T00:53:04.502Z,1013.80
2022-10-26T00:54:04.724Z,1013.82
2022-10-26T00:55:05.148Z,1013.79
2022-10-26T00:56:05.442Z,1013.85
2022-10-26T00:57:05.661Z,1013.81
2022-10-26T00:58:06.012Z,1013.81
2022-10-26T00:59:06.275Z,1013.82
2022-10-26T01:00:06.526Z,1013.90
2022-10-26T01:01:06.813Z,1013.91
2022-10-26T01:02:07.035Z,1013.87
2022-10-26T01:03:07.291Z,1013.84
2022-10-26T01:04:07.625Z,1013.85
2022-10-26T01:05:07.874Z,1013.87
2022-10-26T01:06:08.084Z,1013.89
2022-10-26T01:07:08.500Z,1013.89
2022-10-26T01:08:08.760Z,1013.83
2022-10-26T01:09:08.963Z,1013.84
2022-10-26T01:10:09.328Z,1013.90
2022-10-26T01:11:09.565Z,1013.85
2022-10-26T01:12:09.806Z,1013.82
2022-10-26T01:13:10.013Z,1013.86
2022-10-26T01:14:10.354Z,1013.89
2022-10-26T01:15:10.707Z,1013.91
2022-10-26T01:16:10.933Z,1013.85
2022-10-26T01:17:11.284Z,1013.86
2022-10-26T01:18:11.525Z,1013.88
2022-10-26T01:19:11.726Z,1013.88
2022-10-26T01:20:12.084Z,1013.89
2022-10-26T01:21:12.307Z,1013.84
2022-10-26T01:22:12.653Z,1013.86
2022-10-26T01:23:12.996Z,1013.92
2022-10-26T01:24:13.398Z,1013.87
2022-10-26T01:25:13.636Z,1013.83
2022-10-26T01:26:13.863Z,1013.89
2022-10-26T01:27:14.241Z,1013.89
2022-10-26T01:28:14.595Z,1013.89
2022-10-26T01:29:14.862Z,1013.91
2022-10-26T01:30:15.101Z,1013.92
2022-10-26T01:31:15.375Z,1013.90
2022-10-26T01:32:15.589Z,1013.80
2022-10-26T01:33:15.819Z,1013.84
2022-10-26T01:34:16.049Z,1013.88
2022-10-26T01:35:16.315Z,1013.82
2022-10-26T01:36:16.544Z,1013.81
2022-10-26T01:37:16.738Z,1013.82
2022-10-26T01:38:17.081Z,1013.80
2022-10-26T01:39:17.438Z,1013.81
2022-10-26T01:40:17.675Z,1013.81
2022-10-26T01:41:17.935Z,1013.83
2022-10-26T01:42:18.171Z,1013.82
2022-10-26T01:43:18.401Z,1013.75
2022-10-26T01:44:18.742Z,1013.81
2022-10-26T01:45:19.114Z,1013.81
2022-10-26T01:47:19.679Z,1013.84
2022-10-26T01:48:19.896Z,1013.79
2022-10-26T01:49:20.248Z,1013.80
2022-10-26T01:50:20.576Z,1013.75
2022-10-26T01:51:20.911Z,1013.78
2022-10-26T01:52:21.241Z,1013.77
2022-10-26T01:53:21.584Z,1013.74
2022-10-26T01:54:21.914Z,1013.78
2022-10-26T01:55:22.262Z,1013.75
2022-10-26T01:56:22.503Z,1013.79
2022-10-26T01:57:22.732Z,1013.77
2022-10-26T01:58:22.966Z,1013.73
2022-10-26T01:59:23.192Z,1013.78
2022-10-26T02:00:23.559Z,1013.77
2022-10-26T02:01:23.796Z,1013.73
2022-10-26T02:02:24.021Z,1013.76
2022-10-26T02:03:24.423Z,1013.80
2022-10-26T02:05:24.965Z,1013.72
2022-10-26T02:06:25.186Z,1013.75
2022-10-26T02:07:25.436Z,1013.81
2022-10-26T02:08:25.689Z,1013.81
2022-10-26T02:09:25.910Z,1013.81
2022-10-26T02:10:26.277Z,1013.81
2022-10-26T02:11:26.528Z,1013.77
2022-10-26T02:12:26.767Z,1013.76
2022-10-26T02:13:27.067Z,1013.76
2022-10-26T02:14:27.328Z,1013.83
2022-10-26T02:15:27.669Z,1013.80
2022-10-26T02:16:27.848Z,1013.82
2022-10-26T02:17:28.207Z,1013.72
2022-10-26T02:18:28.520Z,1013.75
2022-10-26T02:19:28.781Z,1013.79
2022-10-26T02:20:29.047Z,1013.73
2022-10-26T02:21:29.272Z,1013.71
2022-10-26T02:22:29.641Z,1013.66
2022-10-26T02:23:29.840Z,1013.70
2022-10-26T02:24:30.191Z,1013.67
2022-10-26T02:25:30.430Z,1013.62
2022-10-26T02:26:30.659Z,1013.67
2022-10-26T02:27:30.991Z,1013.71
2022-10-26T02:28:31.338Z,1013.72
2022-10-26T02:29:31.572Z,1013.70
2022-10-26T02:30:31.821Z,1013.71
2022-10-26T02:31:32.060Z,1013.64
2022-10-26T02:32:32.425Z,1013.73
2022-10-26T02:33:32.645Z,1013.69
2022-10-26T02:34:33.022Z,1013.69
2022-10-26T02:35:33.255Z,1013.72
2022-10-26T02:36:33.514Z,1013.70
2022-10-26T02:37:33.754Z,1013.68
2022-10-26T02:38:34.100Z,1013.67
2022-10-26T02:39:34.434Z,1013.65
2022-10-26T02:40:42.285Z,1013.64
2022-10-26T02:41:35.099Z,1013.58
2022-10-26T02:42:35.395Z,1013.61
2022-10-26T02:43:35.703Z,1013.61
2022-10-26T02:44:36.027Z,1013.59
2022-10-26T02:45:36.339Z,1013.59
2022-10-26T02:46:36.639Z,1013.58
2022-10-26T02:47:36.969Z,1013.55
2022-10-26T02:48:37.273Z,1013.61
2022-10-26T02:49:37.605Z,1013.64
2022-10-26T02:50:37.907Z,1013.65
2022-10-26T02:51:38.267Z,1013.65
2022-10-26T02:52:38.555Z,1013.59
2022-10-26T02:53:38.867Z,1013.61
2022-10-26T02:54:39.188Z,1013.63
2022-10-26T02:55:39.489Z,1013.61
2022-10-26T02:56:39.789Z,1013.55
2022-10-26T02:57:40.102Z,1013.59
2022-10-26T02:58:40.398Z,1013.59
2022-10-26T02:59:40.710Z,1013.59
2022-10-26T03:00:41.012Z,1013.60
2022-10-26T03:01:41.487Z,1013.64
2022-10-26T03:02:43.509Z,1013.58
2022-10-26T03:03:41.875Z,1013.61
2022-10-26T03:04:42.080Z,1013.60
2022-10-26T03:05:42.382Z,1013.62
2022-10-26T03:06:42.700Z,1013.61
2022-10-26T03:07:43.009Z,1013.59
2022-10-26T03:08:43.311Z,1013.65
2022-10-26T03:09:43.632Z,1013.59
2022-10-26T03:10:43.942Z,1013.60
2022-10-26T03:11:44.262Z,1013.67
2022-10-26T03:12:44.551Z,1013.56
2022-10-26T03:13:44.854Z,1013.57
2022-10-26T03:14:45.174Z,1013.65
2022-10-26T03:15:45.473Z,1013.66
2022-10-26T03:16:45.813Z,1013.66
2022-10-26T03:17:46.242Z,1013.63
2022-10-26T03:18:46.448Z,1013.67
2022-10-26T03:19:46.763Z,1013.61
2022-10-26T03:20:47.054Z,1013.61
2022-10-26T03:21:47.352Z,1013.67
2022-10-26T03:22:47.642Z,1013.69
2022-10-26T03:23:47.926Z,1013.62
2022-10-26T03:24:48.235Z,1013.63
2022-10-26T03:25:48.515Z,1013.59
2022-10-26T03:26:48.813Z,1013.53
2022-10-26T03:27:49.333Z,1013.59
2022-10-26T03:28:49.326Z,1013.55
2022-10-26T03:29:49.628Z,1013.60
2022-10-26T03:30:49.922Z,1013.59
2022-10-26T03:31:50.200Z,1013.56
2022-10-26T03:32:50.477Z,1013.57
2022-10-26T03:33:50.755Z,1013.63
2022-10-26T03:34:51.034Z,1013.64
2022-10-26T03:35:51.328Z,1013.63
2022-10-26T03:36:51.590Z,1013.62
2022-10-26T03:37:52.165Z,1013.70
2022-10-26T03:38:52.222Z,1013.67
2022-10-26T03:39:52.497Z,1013.68
2022-10-26T03:40:52.776Z,1013.79
2022-10-26T03:42:53.468Z,1013.76
2022-10-26T03:43:53.566Z,1013.78
2022-10-26T03:44:53.849Z,1013.72
2022-10-26T03:45:54.105Z,1013.81
2022-10-26T03:46:54.369Z,1013.78
2022-10-26T03:47:54.628Z,1013.83
2022-10-26T03:48:54.893Z,1013.80
2022-10-26T03:49:55.192Z,1013.75
2022-10-26T03:50:55.429Z,1013.77
2022-10-26T03:51:55.699Z,1013.85
2022-10-26T03:52:55.956Z,1013.85
2022-10-26T03:53:56.216Z,1013.82
2022-10-26T03:54:56.484Z,1013.83
2022-10-26T03:55:56.731Z,1013.78
2022-10-26T03:56:56.972Z,1013.76
2022-10-26T03:57:57.231Z,1013.77
2022-10-26T03:58:57.473Z,1013.78
2022-10-26T03:59:57.732Z,1013.73
2022-10-26T04:00:57.983Z,1013.76
2022-10-26T04:01:58.311Z,1013.78
2022-10-26T04:02:58.464Z,1013.76
2022-10-26T04:03:58.793Z,1013.76
2022-10-26T04:04:59.075Z,1013.80
2022-10-26T04:05:59.352Z,1013.77
2022-10-26T04:06:59.611Z,1013.80
2022-10-26T04:07:59.875Z,1013.82
2022-10-26T04:09:00.135Z,1013.81
2022-10-26T04:10:00.417Z,1013.80
2022-10-26T04:11:03.709Z,1013.80
2022-10-26T04:12:00.967Z,1013.78
2022-10-26T04:13:01.223Z,1013.77
2022-10-26T04:14:01.462Z,1013.77
2022-10-26T04:16:02.046Z,1013.73
2022-10-26T04:17:02.296Z,1013.75
2022-10-26T04:18:02.538Z,1013.77
2022-10-26T04:19:02.770Z,1013.74
2022-10-26T04:20:03.058Z,1013.77
2022-10-26T04:21:03.298Z,1013.78
2022-10-26T04:22:03.546Z,1013.76
2022-10-26T04:23:03.778Z,1013.84
2022-10-26T04:24:04.038Z,1013.86
2022-10-26T04:25:04.299Z,1013.87
2022-10-26T04:26:04.549Z,1013.86
2022-10-26T04:27:04.800Z,1013.88
2022-10-26T04:28:05.058Z,1013.87
2022-10-26T04:29:05.272Z,1013.88
2022-10-26T04:30:05.643Z,1013.84
2022-10-26T04:31:05.858Z,1013.85
2022-10-26T04:32:06.220Z,1013.82
2022-10-26T04:33:06.461Z,1013.79
2022-10-26T04:34:06.702Z,1013.83
2022-10-26T04:35:06.942Z,1013.85
2022-10-26T04:36:07.190Z,1013.79
2022-10-26T04:37:07.421Z,1013.78
2022-10-26T04:38:07.816Z,1013.82
2022-10-26T04:39:08.066Z,1013.84
2022-10-26T04:40:08.309Z,1013.88
2022-10-26T04:41:08.553Z,1013.88
2022-10-26T04:42:08.800Z,1013.90
2022-10-26T04:43:09.034Z,1013.87
2022-10-26T04:44:09.295Z,1013.87
2022-10-26T04:45:09.539Z,1013.94
2022-10-26T04:46:12.161Z,1013.96
2022-10-26T04:47:10.074Z,1013.96
2022-10-26T04:48:10.337Z,1013.92
2022-10-26T04:49:10.570Z,1013.92
2022-10-26T04:50:10.825Z,1013.97
2022-10-26T04:51:11.056Z,1013.95
2022-10-26T04:52:11.314Z,1014.04
2022-10-26T04:53:11.535Z,1013.95
2022-10-26T04:54:11.775Z,1013.96
2022-10-26T04:55:12.008Z,1014.00
2022-10-26T04:56:12.244Z,1013.96
2022-10-26T04:57:12.452Z,1013.96
2022-10-26T04:58:12.792Z,1014.02
2022-10-26T04:59:13.124Z,1013.98
2022-10-26T05:00:13.476Z,1014.00
2022-10-26T05:01:13.820Z,1013.97
2022-10-26T05:02:14.098Z,1013.97
2022-10-26T05:03:14.357Z,1013.98
2022-10-26T05:04:14.741Z,1013.94
2022-10-26T05:05:15.303Z,1013.97
2022-10-26T05:06:15.288Z,1013.94
2022-10-26T05:07:15.663Z,1014.00
2022-10-26T05:08:15.779Z,1013.96
2022-10-26T05:09:16.033Z,1013.92
2022-10-26T05:10:16.288Z,1013.99
2022-10-26T05:11:16.543Z,1014.00
2022-10-26T05:12:16.813Z,1014.03
2022-10-26T05:13:17.173Z,1014.00
2022-10-26T05:14:17.494Z,1013.99
2022-10-26T05:15:17.722Z,1013.98
2022-10-26T05:16:17.970Z,1013.97
2022-10-26T05:17:18.239Z,1014.01
2022-10-26T05:18:18.531Z,1013.99
2022-10-26T05:19:18.764Z,1013.99
2022-10-26T05:20:19.017Z,1014.03
2022-10-26T05:21:19.284Z,1013.95
2022-10-26T05:22:19.535Z,1014.00
2022-10-26T05:23:19.753Z,1013.94
2022-10-26T05:24:20.016Z,1013.96
2022-10-26T05:25:20.267Z,1013.99
2022-10-26T05:26:20.517Z,1013.95
2022-10-26T05:27:20.744Z,1013.99
2022-10-26T05:28:21.003Z,1013.95
2022-10-26T05:29:21.235Z,1013.98
2022-10-26T05:30:21.489Z,1014.06
2022-10-26T05:31:21.717Z,1013.99
2022-10-26T05:32:21.972Z,1014.07
2022-10-26T05:33:22.205Z,1014.06
2022-10-26T05:34:22.436Z,1014.04
2022-10-26T05:35:22.676Z,1014.01
2022-10-26T05:36:22.923Z,1013.99
2022-10-26T05:37:23.148Z,1014.03
2022-10-26T05:38:23.571Z,1014.07
2022-10-26T05:39:23.812Z,1014.08
2022-10-26T05:40:24.087Z,1014.02
2022-10-26T05:41:24.316Z,1014.05
2022-10-26T05:42:24.550Z,1014.02
2022-10-26T05:43:24.769Z,1014.08
2022-10-26T05:44:25.012Z,1014.09
2022-10-26T05:45:25.249Z,1014.06
2022-10-26T05:46:25.513Z,1014.13
2022-10-26T05:47:25.874Z,1014.13
2022-10-26T05:48:26.020Z,1014.09
2022-10-26T05:49:26.371Z,1014.12
2022-10-26T05:50:26.500Z,1014.09
2022-10-26T05:51:26.758Z,1014.15
2022-10-26T05:52:27.086Z,1014.10
2022-10-26T05:53:27.305Z,1014.13
2022-10-26T05:54:27.584Z,1014.15
2022-10-26T05:55:28.090Z,1014.13
2022-10-26T05:56:28.751Z,1014.12
2022-10-26T05:57:28.424Z,1014.14
2022-10-26T05:58:28.696Z,1014.15
2022-10-26T05:59:29.233Z,1014.20
2022-10-26T06:00:29.352Z,1014.23
2022-10-26T06:01:29.612Z,1014.18
2022-10-26T06:02:29.806Z,1014.20
2022-10-26T06:04:30.343Z,1014.16
2022-10-26T06:05:30.623Z,1014.16
2022-10-26T06:06:30.873Z,1014.23
2022-10-26T06:07:31.153Z,1014.24
2022-10-26T06:08:31.402Z,1014.22
2022-10-26T06:09:31.826Z,1014.23
2022-10-26T06:10:31.955Z,1014.26
2022-10-26T06:11:32.245Z,1014.28
2022-10-26T06:12:32.534Z,1014.32
2022-10-26T06:13:33.086Z,1014.31
2022-10-26T06:14:34.595Z,1014.31
2022-10-26T06:15:33.455Z,1014.29
2022-10-26T06:16:41.456Z,1014.30
2022-10-26T06:17:34.006Z,1014.32
2022-10-26T06:18:34.369Z,1014.28
2022-10-26T06:23:47.571Z,1014.36
2022-10-26T06:24:45.221Z,1014.38
2022-10-26T06:25:45.525Z,1014.35
2022-10-26T06:26:45.810Z,1014.38
2022-10-26T06:27:46.063Z,1014.32
2022-10-26T06:28:49.911Z,1014.39
2022-10-26T06:29:46.652Z,1014.38
2022-10-26T06:30:46.925Z,1014.39
2022-10-26T06:31:47.181Z,1014.40
2022-10-26T06:32:47.677Z,1014.35
2022-10-26T06:33:47.702Z,1014.41
2022-10-26T06:34:47.943Z,1014.44
2022-10-26T06:35:48.222Z,1014.45
2022-10-26T06:36:48.547Z,1014.50
2022-10-26T06:37:49.142Z,1014.48
2022-10-26T06:38:49.142Z,1014.48
2022-10-26T06:39:52.610Z,1014.44
2022-10-26T06:40:50.673Z,1014.49
2022-10-26T06:41:49.997Z,1014.52
2022-10-26T06:42:51.184Z,1014.56
2022-10-26T06:43:50.538Z,1014.54
2022-10-26T06:44:50.806Z,1014.55
2022-10-26T06:45:51.118Z,1014.56
2022-10-26T06:46:51.436Z,1014.52
2022-10-26T06:47:51.926Z,1014.54
2022-10-26T06:48:51.976Z,1014.48
2022-10-26T06:49:52.267Z,1014.48
2022-10-26T06:50:52.578Z,1014.49
2022-10-26T06:51:53.150Z,1014.52
2022-10-26T06:52:56.577Z,1014.50
2022-10-26T06:53:53.446Z,1014.49
2022-10-26T06:54:53.627Z,1014.58
2022-10-26T06:55:53.985Z,1014.57
2022-10-26T06:56:54.370Z,1014.54
2022-10-26T06:57:54.705Z,1014.57
2022-10-26T06:58:55.341Z,1014.60
2022-10-26T06:59:55.215Z,1014.55
2022-10-26T07:00:55.609Z,1014.62
2022-10-26T07:01:55.884Z,1014.61
2022-10-26T07:02:56.166Z,1014.60
2022-10-26T07:03:56.411Z,1014.60
2022-10-26T07:04:56.708Z,1014.64
2022-10-26T07:05:57.041Z,1014.63
2022-10-26T07:06:57.356Z,1014.61
2022-10-26T07:07:57.690Z,1014.60
2022-10-26T07:08:58.014Z,1014.62
2022-10-26T07:09:58.340Z,1014.65
2022-10-26T07:10:58.801Z,1014.62
2022-10-26T07:11:59.092Z,1014.63
2022-10-26T07:13:00.864Z,1014.63
2022-10-26T07:13:59.984Z,1014.67
2022-10-26T07:15:00.697Z,1014.62
2022-10-26T07:16:00.334Z,1014.71
2022-10-26T07:17:00.614Z,1014.69
2022-10-26T07:18:04.141Z,1014.73
2022-10-26T07:19:32.196Z,1014.71
2022-10-26T07:20:02.622Z,1014.65
2022-10-26T07:32:49.973Z,1014.68
2022-10-26T07:33:28.896Z,1014.68
2022-10-26T07:34:21.647Z,1014.61
2022-10-26T07:35:21.686Z,1014.68
2022-10-26T07:36:21.967Z,1014.64
2022-10-26T07:37:22.114Z,1014.65
2022-10-26T07:38:22.385Z,1014.69
2022-10-26T07:39:23.759Z,1014.66
2022-10-26T07:41:23.330Z,1014.67
2022-10-26T07:42:24.077Z,1014.68
2022-10-26T07:43:27.145Z,1014.63
2022-10-26T07:44:24.023Z,1014.63
2022-10-26T07:45:24.306Z,1014.66
2022-10-26T07:46:25.055Z,1014.74
2022-10-26T07:52:00.241Z,1014.75
2022-10-26T07:52:37.713Z,1014.76
2022-10-26T07:53:39.268Z,1014.75
2022-10-26T08:00:09.964Z,1014.80
2022-10-26T08:01:12.106Z,1014.76
2022-10-26T08:02:14.519Z,1014.74
2022-10-26T08:06:14.545Z,1014.79
2022-10-26T08:07:12.551Z,1014.71
2022-10-26T08:08:23.553Z,1014.74
2022-10-26T08:10:40.621Z,1014.78
2022-10-26T08:11:40.434Z,1014.79
2022-10-26T08:12:41.768Z,1014.78
2022-10-26T08:13:40.885Z,1014.84
2022-10-26T08:14:40.982Z,1014.80
2022-10-26T08:15:41.302Z,1014.83
2022-10-26T08:16:42.403Z,1014.83
2022-10-26T08:17:41.868Z,1014.86
2022-10-26T08:18:42.126Z,1014.85
2022-10-26T08:19:42.411Z,1014.80
2022-10-26T08:20:42.738Z,1014.81
2022-10-26T08:21:42.999Z,1014.76
2022-10-26T08:22:43.280Z,1014.82
2022-10-26T08:23:43.568Z,1014.84
2022-10-26T08:24:43.813Z,1014.82
2022-10-26T08:25:44.093Z,1014.84
2022-10-26T08:26:44.366Z,1014.82
2022-10-26T08:27:44.675Z,1014.78
2022-10-26T08:28:44.955Z,1014.79
2022-10-26T08:29:45.226Z,1014.80
2022-10-26T08:30:45.594Z,1014.77
2022-10-26T08:31:45.818Z,1014.81
2022-10-26T08:32:46.186Z,1014.81
2022-10-26T08:33:46.466Z,1014.82
2022-10-26T08:34:46.628Z,1014.76
2022-10-26T08:35:47.017Z,1014.75
2022-10-26T08:36:47.287Z,1014.78
2022-10-26T08:37:47.568Z,1014.79
2022-10-26T08:38:47.909Z,1014.78
2022-10-26T08:39:50.569Z,1014.77
2022-10-26T08:42:06.576Z,1014.82
2022-10-26T08:43:06.448Z,1014.80
2022-10-26T08:44:06.805Z,1014.79
2022-10-26T08:45:06.900Z,1014.80
2022-10-26T08:46:07.172Z,1014.83
2022-10-26T08:47:07.460Z,1014.84
2022-10-26T08:48:07.722Z,1014.78
2022-10-26T08:49:08.173Z,1014.80
2022-10-26T08:50:08.291Z,1014.80
2022-10-26T08:51:08.617Z,1014.77
2022-10-26T08:52:08.908Z,1014.79
2022-10-26T08:53:09.172Z,1014.75
2022-10-26T08:54:09.519Z,1014.80
2022-10-26T08:55:09.835Z,1014.80
2022-10-26T08:56:10.133Z,1014.82
2022-10-26T08:57:10.384Z,1014.75
2022-10-26T08:58:10.676Z,1014.81
2022-10-26T08:59:10.944Z,1014.79
2022-10-26T09:00:11.205Z,1014.85
2022-10-26T09:01:11.562Z,1014.82
2022-10-26T09:02:11.725Z,1014.70
2022-10-26T09:03:12.006Z,1014.75
2022-10-26T09:04:12.279Z,1014.77
2022-10-26T09:05:12.568Z,1014.76
2022-10-26T09:06:12.886Z,1014.74
2022-10-26T09:07:13.211Z,1014.74
2022-10-26T09:08:13.507Z,1014.74
2022-10-26T09:09:13.847Z,1014.69
2022-10-26T09:10:14.232Z,1014.67
2022-10-26T09:11:14.363Z,1014.69
2022-10-26T09:12:14.685Z,1014.72
2022-10-26T09:13:14.979Z,1014.69
2022-10-26T09:14:15.257Z,1014.73
2022-10-26T09:15:15.500Z,1014.73
2022-10-26T09:16:15.766Z,1014.83
2022-10-26T09:17:16.069Z,1014.75
2022-10-26T09:18:16.366Z,1014.78
2022-10-26T09:19:16.622Z,1014.79
2022-10-26T09:20:16.874Z,1014.83
2022-10-26T09:21:17.149Z,1014.83
2022-10-26T09:22:17.425Z,1014.86
2022-10-26T09:23:17.681Z,1014.88
2022-10-26T09:24:17.962Z,1014.85
2022-10-26T09:25:18.231Z,1014.88
2022-10-26T09:26:18.515Z,1014.85
2022-10-26T09:27:18.809Z,1014.80
2022-10-26T09:28:19.067Z,1014.79
2022-10-26T09:29:19.343Z,1014.78
2022-10-26T09:30:19.687Z,1014.73
2022-10-26T09:31:19.978Z,1014.75
2022-10-26T09:32:20.246Z,1014.72
2022-10-26T09:33:20.534Z,1014.70
2022-10-26T09:34:20.825Z,1014.67
2022-10-26T09:35:21.118Z,1014.76
2022-10-26T09:36:22.325Z,1014.72
2022-10-26T09:37:21.657Z,1014.75
2022-10-26T09:38:21.927Z,1014.72
2022-10-26T09:39:22.227Z,1014.73
2022-10-26T09:40:22.589Z,1014.76
2022-10-26T09:41:22.802Z,1014.78
2022-10-26T09:42:23.847Z,1014.76
2022-10-26T09:43:23.358Z,1014.78
2022-10-26T09:44:23.629Z,1014.79
2022-10-26T09:45:24.646Z,1014.72
2022-10-26T09:46:24.254Z,1014.79
2022-10-26T09:47:24.552Z,1014.81
2022-10-26T09:48:24.808Z,1014.83
2022-10-26T09:49:25.180Z,1014.79
2022-10-26T09:50:25.347Z,1014.89
2022-10-26T09:51:25.609Z,1014.86
2022-10-26T09:52:25.916Z,1014.86
2022-10-26T09:53:26.154Z,1014.85
2022-10-26T09:54:26.410Z,1014.86
2022-10-26T09:55:26.690Z,1014.87
2022-10-26T09:56:27.041Z,1014.83
2022-10-26T09:57:27.200Z,1014.79
2022-10-26T09:58:27.440Z,1014.79
2022-10-26T09:59:27.725Z,1014.85
2022-10-26T10:00:28.830Z,1014.81
2022-10-26T10:01:28.308Z,1014.82
2022-10-26T10:02:28.662Z,1014.87
2022-10-26T10:03:28.793Z,1014.84
2022-10-26T10:04:29.054Z,1014.85
2022-10-26T10:06:30.547Z,1014.86
2022-10-26T10:07:29.871Z,1014.82
2022-10-26T10:08:30.161Z,1014.84
2022-10-26T10:09:30.459Z,1014.86
2022-10-26T10:10:30.695Z,1014.85
2022-10-26T10:11:30.990Z,1014.81
2022-10-26T10:12:31.225Z,1014.88
2022-10-26T10:13:31.488Z,1014.90
2022-10-26T10:14:34.629Z,1014.88
2022-10-26T10:15:32.998Z,1014.86
2022-10-26T10:16:32.346Z,1014.85
2022-10-26T10:17:32.649Z,1014.87
2022-10-26T10:18:32.941Z,1014.88
2022-10-26T10:19:33.217Z,1014.83
2022-10-26T10:20:33.489Z,1014.85
2022-10-26T10:21:33.779Z,1014.84
2022-10-26T10:22:34.041Z,1014.83
2022-10-26T10:23:34.336Z,1014.87
2022-10-26T10:24:34.579Z,1014.82
2022-10-26T10:25:34.865Z,1014.87
2022-10-26T10:26:35.134Z,1014.84
2022-10-26T10:27:35.418Z,1014.85
2022-10-26T10:28:35.691Z,1014.85
2022-10-26T10:29:35.962Z,1014.89
2022-10-26T10:30:36.893Z,1014.89
2022-10-26T10:31:36.609Z,1014.86
2022-10-26T10:32:39.213Z,1014.91
2022-10-26T10:33:37.173Z,1014.93
2022-10-26T10:34:37.444Z,1014.92
2022-10-26T10:35:37.715Z,1014.96
2022-10-26T10:36:38.004Z,1014.92
2022-10-26T10:37:38.284Z,1014.95
2022-10-26T10:38:38.544Z,1014.91
2022-10-26T10:39:38.847Z,1014.90
2022-10-26T10:40:39.096Z,1014.86
2022-10-26T10:41:39.378Z,1014.89
2022-10-26T10:42:39.645Z,1014.89
2022-10-26T10:43:39.935Z,1014.93
2022-10-26T10:44:40.178Z,1014.85
2022-10-26T10:45:40.466Z,1014.88
2022-10-26T10:46:40.762Z,1014.88
2022-10-26T10:48:41.279Z,1014.78
2022-10-26T10:49:41.590Z,1014.77
2022-10-26T10:50:41.866Z,1014.79
2022-10-26T10:51:42.160Z,1014.77
2022-10-26T10:52:42.418Z,1014.80
2022-10-26T10:53:42.716Z,1014.80
2022-10-26T10:54:42.998Z,1014.78
2022-10-26T10:55:43.289Z,1014.81
2022-10-26T10:56:43.572Z,1014.80
2022-10-26T10:57:43.872Z,1014.77
2022-10-26T10:58:44.159Z,1014.73
2022-10-26T10:59:44.490Z,1014.75
2022-10-26T11:00:44.925Z,1014.73
2022-10-26T11:01:45.120Z,1014.74
2022-10-26T11:02:45.370Z,1014.77
2022-10-26T11:03:45.604Z,1014.76
2022-10-26T11:04:45.882Z,1014.75
2022-10-26T11:05:46.193Z,1014.76
2022-10-26T11:06:46.485Z,1014.73
2022-10-26T11:07:46.927Z,1014.73
2022-10-26T11:08:47.044Z,1014.76
2022-10-26T11:09:47.266Z,1014.76
2022-10-26T11:10:47.504Z,1014.75
2022-10-26T11:11:47.788Z,1014.78
2022-10-26T11:12:48.096Z,1014.84
2022-10-26T11:13:48.354Z,1014.80
2022-10-26T11:14:49.634Z,1014.79
2022-10-26T11:15:48.836Z,1014.84
2022-10-26T11:16:49.128Z,1014.83
2022-10-26T11:17:49.619Z,1014.83
2022-10-26T11:18:49.727Z,1014.80
2022-10-26T11:19:50.004Z,1014.79
2022-10-26T11:20:50.315Z,1014.81
2022-10-26T11:21:50.617Z,1014.80
2022-10-26T11:22:51.306Z,1014.80
2022-10-26T11:23:51.269Z,1014.81
2022-10-26T11:24:51.527Z,1014.77
2022-10-26T11:25:51.828Z,1014.82
2022-10-26T11:26:52.117Z,1014.78
2022-10-26T11:27:52.611Z,1014.77
2022-10-26T11:28:52.722Z,1014.78
2022-10-26T11:29:52.982Z,1014.80
2022-10-26T11:30:53.252Z,1014.80
2022-10-26T11:31:53.521Z,1014.69
2022-10-26T11:32:53.803Z,1014.71
2022-10-26T11:33:54.079Z,1014.66
2022-10-26T11:34:54.424Z,1014.62
2022-10-26T11:35:54.755Z,1014.64
2022-10-26T11:36:54.914Z,1014.65
2022-10-26T11:37:55.173Z,1014.62
2022-10-26T11:38:57.633Z,1014.59
2022-10-26T11:39:55.745Z,1014.63
2022-10-26T11:40:56.023Z,1014.57
2022-10-26T11:41:56.313Z,1014.57
2022-10-26T11:42:56.586Z,1014.55
2022-10-26T11:43:56.862Z,1014.57
2022-10-26T11:44:57.146Z,1014.56
2022-10-26T11:46:57.689Z,1014.56
2022-10-26T11:47:57.953Z,1014.54
2022-10-26T11:48:58.172Z,1014.59
2022-10-26T11:49:59.399Z,1014.60
2022-10-26T11:50:58.743Z,1014.57
2022-10-26T11:51:58.998Z,1014.53
2022-10-26T11:52:59.306Z,1014.57
2022-10-26T11:53:59.592Z,1014.53
2022-10-26T11:54:59.895Z,1014.58
2022-10-26T11:56:00.283Z,1014.53
2022-10-26T11:57:00.390Z,1014.56
2022-10-26T11:58:00.729Z,1014.57
2022-10-26T12:00:01.321Z,1014.58
2022-10-26T12:01:01.599Z,1014.53
2022-10-26T12:02:01.873Z,1014.48
2022-10-26T12:03:02.145Z,1014.50
2022-10-26T12:04:02.428Z,1014.58
2022-10-26T12:05:02.662Z,1014.49
2022-10-26T12:06:02.920Z,1014.49
2022-10-26T12:07:03.175Z,1014.51
2022-10-26T12:08:03.435Z,1014.50
2022-10-26T12:09:03.705Z,1014.45
2022-10-26T12:10:03.951Z,1014.53
2022-10-26T12:11:04.253Z,1014.52
2022-10-26T12:12:04.548Z,1014.50
2022-10-26T12:13:05.574Z,1014.47
2022-10-26T12:14:05.175Z,1014.42
2022-10-26T12:15:05.427Z,1014.42
2022-10-26T12:16:05.701Z,1014.43
2022-10-26T12:17:05.955Z,1014.44
2022-10-26T12:18:06.287Z,1014.44
2022-10-26T12:19:06.518Z,1014.44
2022-10-26T12:20:06.831Z,1014.40
2022-10-26T12:21:07.121Z,1014.44
2022-10-26T12:22:07.392Z,1014.43
2022-10-26T12:23:07.688Z,1014.40
2022-10-26T12:24:07.949Z,1014.42
2022-10-26T12:25:12.407Z,1014.41
2022-10-26T12:26:09.473Z,1014.45
2022-10-26T12:27:08.669Z,1014.41
2022-10-26T12:28:08.918Z,1014.43
2022-10-26T12:29:09.193Z,1014.42
2022-10-26T12:30:09.563Z,1014.42
2022-10-26T12:31:09.960Z,1014.35
2022-10-26T12:32:10.125Z,1014.40
2022-10-26T12:33:10.393Z,1014.42
2022-10-26T12:34:10.670Z,1014.41
2022-10-26T12:35:10.936Z,1014.35
2022-10-26T12:36:11.244Z,1014.40
2022-10-26T12:37:11.492Z,1014.40
2022-10-26T12:38:11.748Z,1014.40
2022-10-26T12:39:12.002Z,1014.39
2022-10-26T12:40:12.276Z,1014.40
2022-10-26T12:41:12.527Z,1014.42
2022-10-26T12:42:12.818Z,1014.42
2022-10-26T12:43:13.084Z,1014.44
2022-10-26T12:44:13.366Z,1014.43
2022-10-26T12:45:13.627Z,1014.44
2022-10-26T12:46:13.896Z,1014.41
2022-10-26T12:47:14.154Z,1014.39
2022-10-26T12:48:27.738Z,1014.40
2022-10-26T12:49:15.640Z,1014.40
2022-10-26T12:50:14.974Z,1014.43